sensor_id;sensor_type;location;lat;lon;timestamp;temperature;humidity
78884;SHT31;68262;51.968;5.672;2023-08-21T00:00:38;25.3;54.0
78884;SHT31;68262;51.968;5.672;2023-08-21T00:03:08;25.3;54.7
78884;SHT31;68262;51.968;5.672;2023-08-21T00:05:37;25.3;55.1
78884;SHT31;68262;51.968;5.672;2023-08-21T00:08:09;25.3;54.5
78884;SHT31;68262;51.968;5.672;2023-08-21T00:10:39;25.3;54.7
78884;SHT31;68262;51.968;5.672;2023-08-21T00:13:09;25.2;54.8
78884;SHT31;68262;51.968;5.672;2023-08-21T00:15:39;25.2;54.2
78884;SHT31;68262;51.968;5.672;2023-08-21T00:18:08;25.2;54.6
78884;SHT31;68262;51.968;5.672;2023-08-21T00:20:38;25.2;55.0
78884;SHT31;68262;51.968;5.672;2023-08-21T00:23:09;25.2;54.7
78884;SHT31;68262;51.968;5.672;2023-08-21T00:25:38;25.1;54.7
78884;SHT31;68262;51.968;5.672;2023-08-21T00:28:10;25.1;54.8
78884;SHT31;68262;51.968;5.672;2023-08-21T00:30:42;25.1;55.1
78884;SHT31;68262;51.968;5.672;2023-08-21T00:33:11;25.1;56.2
78884;SHT31;68262;51.968;5.672;2023-08-21T00:35:41;25.1;56.0
78884;SHT31;68262;51.968;5.672;2023-08-21T00:38:13;25.0;54.9
78884;SHT31;68262;51.968;5.672;2023-08-21T00:40:42;25.0;55.5
78884;SHT31;68262;51.968;5.672;2023-08-21T00:43:12;25.0;55.4
78884;SHT31;68262;51.968;5.672;2023-08-21T00:45:44;25.0;55.5
78884;SHT31;68262;51.968;5.672;2023-08-21T00:48:15;25.0;55.2
78884;SHT31;68262;51.968;5.672;2023-08-21T00:50:44;25.0;55.8
78884;SHT31;68262;51.968;5.672;2023-08-21T00:53:15;25.0;55.3
78884;SHT31;68262;51.968;5.672;2023-08-21T00:55:45;24.9;54.9
78884;SHT31;68262;51.968;5.672;2023-08-21T00:58:16;24.9;56.0
78884;SHT31;68262;51.968;5.672;2023-08-21T01:00:49;24.9;55.5
78884;SHT31;68262;51.968;5.672;2023-08-21T01:03:19;24.9;55.6
78884;SHT31;68262;51.968;5.672;2023-08-21T01:05:49;24.8;55.4
78884;SHT31;68262;51.968;5.672;2023-08-21T01:08:24;24.8;55.7
78884;SHT31;68262;51.968;5.672;2023-08-21T01:11:01;24.8;55.7
78884;SHT31;68262;51.968;5.672;2023-08-21T01:13:44;24.7;56.1
78884;SHT31;68262;51.968;5.672;2023-08-21T01:16:20;24.7;55.9
78884;SHT31;68262;51.968;5.672;2023-08-21T01:18:50;24.7;55.7
78884;SHT31;68262;51.968;5.672;2023-08-21T01:21:20;24.7;56.4
78884;SHT31;68262;51.968;5.672;2023-08-21T01:23:50;24.6;55.9
78884;SHT31;68262;51.968;5.672;2023-08-21T01:26:20;24.6;56.2
78884;SHT31;68262;51.968;5.672;2023-08-21T01:28:50;24.6;56.2
78884;SHT31;68262;51.968;5.672;2023-08-21T01:31:25;24.5;56.3
78884;SHT31;68262;51.968;5.672;2023-08-21T01:34:04;24.5;56.4
78884;SHT31;68262;51.968;5.672;2023-08-21T01:36:35;24.5;56.3
78884;SHT31;68262;51.968;5.672;2023-08-21T01:39:07;24.4;55.9
78884;SHT31;68262;51.968;5.672;2023-08-21T01:41:36;24.4;56.6
78884;SHT31;68262;51.968;5.672;2023-08-21T01:44:06;24.4;56.8
78884;SHT31;68262;51.968;5.672;2023-08-21T01:46:35;24.4;56.9
78884;SHT31;68262;51.968;5.672;2023-08-21T01:49:05;24.3;56.5
78884;SHT31;68262;51.968;5.672;2023-08-21T01:51:34;24.3;56.6
78884;SHT31;68262;51.968;5.672;2023-08-21T01:54:04;24.3;57.0
78884;SHT31;68262;51.968;5.672;2023-08-21T01:56:33;24.2;56.9
78884;SHT31;68262;51.968;5.672;2023-08-21T01:59:04;24.2;57.3
78884;SHT31;68262;51.968;5.672;2023-08-21T02:01:35;24.2;57.5
78884;SHT31;68262;51.968;5.672;2023-08-21T02:04:05;24.2;57.5
78884;SHT31;68262;51.968;5.672;2023-08-21T02:06:34;24.1;57.5
78884;SHT31;68262;51.968;5.672;2023-08-21T02:09:04;24.1;57.3
78884;SHT31;68262;51.968;5.672;2023-08-21T02:11:33;24.1;57.5
78884;SHT31;68262;51.968;5.672;2023-08-21T02:14:02;24.1;57.8
78884;SHT31;68262;51.968;5.672;2023-08-21T02:16:32;24.1;57.5
78884;SHT31;68262;51.968;5.672;2023-08-21T02:19:02;24.0;57.9
78884;SHT31;68262;51.968;5.672;2023-08-21T02:21:31;24.0;58.0
78884;SHT31;68262;51.968;5.672;2023-08-21T02:24:01;24.0;57.9
78884;SHT31;68262;51.968;5.672;2023-08-21T02:26:30;24.0;57.5
78884;SHT31;68262;51.968;5.672;2023-08-21T02:29:01;24.0;58.0
78884;SHT31;68262;51.968;5.672;2023-08-21T02:31:31;24.0;58.4
78884;SHT31;68262;51.968;5.672;2023-08-21T02:34:01;23.9;58.5
78884;SHT31;68262;51.968;5.672;2023-08-21T02:36:30;23.9;59.1
78884;SHT31;68262;51.968;5.672;2023-08-21T02:39:00;23.9;58.6
78884;SHT31;68262;51.968;5.672;2023-08-21T02:41:31;23.9;58.2
78884;SHT31;68262;51.968;5.672;2023-08-21T02:44:00;23.9;58.4
78884;SHT31;68262;51.968;5.672;2023-08-21T02:46:30;23.9;58.9
78884;SHT31;68262;51.968;5.672;2023-08-21T02:49:00;23.9;58.5
78884;SHT31;68262;51.968;5.672;2023-08-21T02:51:30;23.9;59.3
78884;SHT31;68262;51.968;5.672;2023-08-21T02:53:59;23.9;58.6
78884;SHT31;68262;51.968;5.672;2023-08-21T02:56:29;23.9;59.0
78884;SHT31;68262;51.968;5.672;2023-08-21T02:58:58;23.9;58.8
78884;SHT31;68262;51.968;5.672;2023-08-21T03:01:28;23.9;59.0
78884;SHT31;68262;51.968;5.672;2023-08-21T03:03:58;23.9;59.2
78884;SHT31;68262;51.968;5.672;2023-08-21T03:06:27;23.9;58.9
78884;SHT31;68262;51.968;5.672;2023-08-21T03:08:57;23.9;58.6
78884;SHT31;68262;51.968;5.672;2023-08-21T03:11:26;23.9;59.7
78884;SHT31;68262;51.968;5.672;2023-08-21T03:13:58;23.9;58.5
78884;SHT31;68262;51.968;5.672;2023-08-21T03:16:27;23.9;58.3
78884;SHT31;68262;51.968;5.672;2023-08-21T03:18:59;23.9;58.4
78884;SHT31;68262;51.968;5.672;2023-08-21T03:21:29;23.8;59.0
78884;SHT31;68262;51.968;5.672;2023-08-21T03:23:59;23.8;59.5
78884;SHT31;68262;51.968;5.672;2023-08-21T03:26:30;23.8;58.4
78884;SHT31;68262;51.968;5.672;2023-08-21T03:29:00;23.8;58.3
78884;SHT31;68262;51.968;5.672;2023-08-21T03:31:29;23.8;58.8
78884;SHT31;68262;51.968;5.672;2023-08-21T03:33:59;23.8;58.7
78884;SHT31;68262;51.968;5.672;2023-08-21T03:36:30;23.8;58.6
78884;SHT31;68262;51.968;5.672;2023-08-21T03:39:01;23.8;59.9
78884;SHT31;68262;51.968;5.672;2023-08-21T03:41:33;23.8;59.1
78884;SHT31;68262;51.968;5.672;2023-08-21T03:44:03;23.8;59.9
78884;SHT31;68262;51.968;5.672;2023-08-21T03:46:32;23.8;58.9
78884;SHT31;68262;51.968;5.672;2023-08-21T03:49:02;23.8;58.3
78884;SHT31;68262;51.968;5.672;2023-08-21T03:51:32;23.8;58.3
78884;SHT31;68262;51.968;5.672;2023-08-21T03:54:01;23.8;58.2
78884;SHT31;68262;51.968;5.672;2023-08-21T03:56:31;23.8;58.5
78884;SHT31;68262;51.968;5.672;2023-08-21T03:59:01;23.7;59.4
78884;SHT31;68262;51.968;5.672;2023-08-21T04:01:30;23.7;59.2
78884;SHT31;68262;51.968;5.672;2023-08-21T04:04:00;23.7;59.1
78884;SHT31;68262;51.968;5.672;2023-08-21T04:06:29;23.7;59.2
78884;SHT31;68262;51.968;5.672;2023-08-21T04:08:59;23.7;58.9
78884;SHT31;68262;51.968;5.672;2023-08-21T04:11:28;23.7;59.2
78884;SHT31;68262;51.968;5.672;2023-08-21T04:13:58;23.6;59.6
78884;SHT31;68262;51.968;5.672;2023-08-21T04:16:28;23.6;59.7
78884;SHT31;68262;51.968;5.672;2023-08-21T04:18:58;23.6;59.3
78884;SHT31;68262;51.968;5.672;2023-08-21T04:21:27;23.6;60.0
78884;SHT31;68262;51.968;5.672;2023-08-21T04:23:57;23.6;60.0
78884;SHT31;68262;51.968;5.672;2023-08-21T04:26:26;23.6;59.9
78884;SHT31;68262;51.968;5.672;2023-08-21T04:28:58;23.6;59.8
78884;SHT31;68262;51.968;5.672;2023-08-21T04:31:29;23.6;59.7
78884;SHT31;68262;51.968;5.672;2023-08-21T04:33:58;23.5;59.5
78884;SHT31;68262;51.968;5.672;2023-08-21T04:36:28;23.5;59.9
78884;SHT31;68262;51.968;5.672;2023-08-21T04:38:57;23.5;60.0
78884;SHT31;68262;51.968;5.672;2023-08-21T04:41:27;23.5;60.2
78884;SHT31;68262;51.968;5.672;2023-08-21T04:43:56;23.5;60.1
78884;SHT31;68262;51.968;5.672;2023-08-21T04:46:27;23.5;60.5
78884;SHT31;68262;51.968;5.672;2023-08-21T04:48:59;23.5;61.3
78884;SHT31;68262;51.968;5.672;2023-08-21T04:51:28;23.5;60.1
78884;SHT31;68262;51.968;5.672;2023-08-21T04:53:58;23.5;60.7
78884;SHT31;68262;51.968;5.672;2023-08-21T04:56:30;23.5;60.7
78884;SHT31;68262;51.968;5.672;2023-08-21T04:58:59;23.5;60.3
78884;SHT31;68262;51.968;5.672;2023-08-21T05:01:29;23.4;60.1
78884;SHT31;68262;51.968;5.672;2023-08-21T05:03:59;23.4;60.1
78884;SHT31;68262;51.968;5.672;2023-08-21T05:06:28;23.4;60.4
78884;SHT31;68262;51.968;5.672;2023-08-21T05:08:58;23.4;61.1
78884;SHT31;68262;51.968;5.672;2023-08-21T05:11:27;23.4;60.9
78884;SHT31;68262;51.968;5.672;2023-08-21T05:13:57;23.4;60.9
78884;SHT31;68262;51.968;5.672;2023-08-21T05:16:26;23.4;60.3
78884;SHT31;68262;51.968;5.672;2023-08-21T05:18:56;23.4;60.2
78884;SHT31;68262;51.968;5.672;2023-08-21T05:21:25;23.4;60.7
78884;SHT31;68262;51.968;5.672;2023-08-21T05:23:55;23.4;60.9
78884;SHT31;68262;51.968;5.672;2023-08-21T05:26:24;23.4;61.2
78884;SHT31;68262;51.968;5.672;2023-08-21T05:28:54;23.4;61.6
78884;SHT31;68262;51.968;5.672;2023-08-21T05:31:23;23.4;61.6
78884;SHT31;68262;51.968;5.672;2023-08-21T05:33:53;23.4;62.5
78884;SHT31;68262;51.968;5.672;2023-08-21T05:36:22;23.4;62.4
78884;SHT31;68262;51.968;5.672;2023-08-21T05:38:52;23.4;61.7
78884;SHT31;68262;51.968;5.672;2023-08-21T05:41:23;23.4;61.5
78884;SHT31;68262;51.968;5.672;2023-08-21T05:43:53;23.4;61.9
78884;SHT31;68262;51.968;5.672;2023-08-21T05:46:23;23.4;61.8
78884;SHT31;68262;51.968;5.672;2023-08-21T05:48:52;23.4;61.6
78884;SHT31;68262;51.968;5.672;2023-08-21T05:51:22;23.4;61.3
78884;SHT31;68262;51.968;5.672;2023-08-21T05:53:53;23.4;61.4
78884;SHT31;68262;51.968;5.672;2023-08-21T05:56:23;23.4;62.7
78884;SHT31;68262;51.968;5.672;2023-08-21T05:58:53;23.4;62.6
78884;SHT31;68262;51.968;5.672;2023-08-21T06:01:22;23.4;62.1
78884;SHT31;68262;51.968;5.672;2023-08-21T06:03:52;23.4;61.2
78884;SHT31;68262;51.968;5.672;2023-08-21T06:06:21;23.5;61.6
78884;SHT31;68262;51.968;5.672;2023-08-21T06:08:51;23.5;61.8
78884;SHT31;68262;51.968;5.672;2023-08-21T06:11:20;23.5;60.4
78884;SHT31;68262;51.968;5.672;2023-08-21T06:13:50;23.5;60.7
78884;SHT31;68262;51.968;5.672;2023-08-21T06:16:20;23.5;62.1
78884;SHT31;68262;51.968;5.672;2023-08-21T06:18:49;23.5;62.0
78884;SHT31;68262;51.968;5.672;2023-08-21T06:21:19;23.5;61.4
78884;SHT31;68262;51.968;5.672;2023-08-21T06:23:48;23.5;62.1
78884;SHT31;68262;51.968;5.672;2023-08-21T06:26:17;23.6;62.6
78884;SHT31;68262;51.968;5.672;2023-08-21T06:28:47;23.6;62.7
78884;SHT31;68262;51.968;5.672;2023-08-21T06:31:16;23.6;62.7
78884;SHT31;68262;51.968;5.672;2023-08-21T06:33:46;23.6;62.3
78884;SHT31;68262;51.968;5.672;2023-08-21T06:36:16;23.6;63.0
78884;SHT31;68262;51.968;5.672;2023-08-21T06:38:45;23.7;62.0
78884;SHT31;68262;51.968;5.672;2023-08-21T06:41:15;23.7;60.6
78884;SHT31;68262;51.968;5.672;2023-08-21T06:43:44;23.7;60.9
78884;SHT31;68262;51.968;5.672;2023-08-21T06:46:14;23.7;60.0
78884;SHT31;68262;51.968;5.672;2023-08-21T06:48:44;23.8;61.1
78884;SHT31;68262;51.968;5.672;2023-08-21T06:51:13;23.8;60.5
78884;SHT31;68262;51.968;5.672;2023-08-21T06:53:43;23.8;59.6
78884;SHT31;68262;51.968;5.672;2023-08-21T06:56:12;23.8;60.2
78884;SHT31;68262;51.968;5.672;2023-08-21T06:58:42;23.9;59.8
78884;SHT31;68262;51.968;5.672;2023-08-21T07:01:11;23.9;60.3
78884;SHT31;68262;51.968;5.672;2023-08-21T07:03:41;23.9;59.5
78884;SHT31;68262;51.968;5.672;2023-08-21T07:06:10;24.0;56.7
78884;SHT31;68262;51.968;5.672;2023-08-21T07:08:40;24.0;58.5
78884;SHT31;68262;51.968;5.672;2023-08-21T07:11:09;24.0;59.6
78884;SHT31;68262;51.968;5.672;2023-08-21T07:13:39;24.1;58.0
78884;SHT31;68262;51.968;5.672;2023-08-21T07:16:09;24.1;56.8
78884;SHT31;68262;51.968;5.672;2023-08-21T07:18:38;24.1;59.3
78884;SHT31;68262;51.968;5.672;2023-08-21T07:21:08;24.2;59.6
78884;SHT31;68262;51.968;5.672;2023-08-21T07:23:39;24.2;60.1
78884;SHT31;68262;51.968;5.672;2023-08-21T07:26:09;24.3;60.4
78884;SHT31;68262;51.968;5.672;2023-08-21T07:28:38;24.3;60.6
78884;SHT31;68262;51.968;5.672;2023-08-21T07:31:08;24.3;61.0
78884;SHT31;68262;51.968;5.672;2023-08-21T07:33:37;24.4;60.6
78884;SHT31;68262;51.968;5.672;2023-08-21T07:36:07;24.4;58.9
78884;SHT31;68262;51.968;5.672;2023-08-21T07:38:36;24.4;59.7
78884;SHT31;68262;51.968;5.672;2023-08-21T07:41:08;24.5;59.9
78884;SHT31;68262;51.968;5.672;2023-08-21T07:43:41;24.5;59.1
78884;SHT31;68262;51.968;5.672;2023-08-21T07:46:12;24.5;58.7
78884;SHT31;68262;51.968;5.672;2023-08-21T07:48:43;24.5;58.1
78884;SHT31;68262;51.968;5.672;2023-08-21T07:51:15;24.6;57.5
78884;SHT31;68262;51.968;5.672;2023-08-21T07:53:47;24.6;56.6
78884;SHT31;68262;51.968;5.672;2023-08-21T07:56:16;24.6;58.7
78884;SHT31;68262;51.968;5.672;2023-08-21T07:58:46;24.6;59.1
78884;SHT31;68262;51.968;5.672;2023-08-21T08:01:15;24.7;58.3
78884;SHT31;68262;51.968;5.672;2023-08-21T08:03:45;24.7;57.3
78884;SHT31;68262;51.968;5.672;2023-08-21T08:06:14;24.7;56.6
78884;SHT31;68262;51.968;5.672;2023-08-21T08:08:44;24.7;57.7
78884;SHT31;68262;51.968;5.672;2023-08-21T08:11:14;24.8;59.9
78884;SHT31;68262;51.968;5.672;2023-08-21T08:13:44;24.8;59.2
78884;SHT31;68262;51.968;5.672;2023-08-21T08:16:13;24.8;57.8
78884;SHT31;68262;51.968;5.672;2023-08-21T08:18:44;24.9;57.6
78884;SHT31;68262;51.968;5.672;2023-08-21T08:21:13;24.9;56.1
78884;SHT31;68262;51.968;5.672;2023-08-21T08:23:43;24.9;55.8
78884;SHT31;68262;51.968;5.672;2023-08-21T08:26:13;25.0;55.1
78884;SHT31;68262;51.968;5.672;2023-08-21T08:28:44;25.0;56.1
78884;SHT31;68262;51.968;5.672;2023-08-21T08:31:18;25.0;56.0
78884;SHT31;68262;51.968;5.672;2023-08-21T08:33:47;25.1;56.9
78884;SHT31;68262;51.968;5.672;2023-08-21T08:36:17;25.1;55.5
78884;SHT31;68262;51.968;5.672;2023-08-21T08:38:47;25.1;55.2
78884;SHT31;68262;51.968;5.672;2023-08-21T08:41:24;25.2;55.3
78884;SHT31;68262;51.968;5.672;2023-08-21T08:43:57;25.2;55.2
78884;SHT31;68262;51.968;5.672;2023-08-21T08:46:29;25.2;57.4
78884;SHT31;68262;51.968;5.672;2023-08-21T08:49:01;25.3;56.3
78884;SHT31;68262;51.968;5.672;2023-08-21T08:51:37;25.3;55.7
78884;SHT31;68262;51.968;5.672;2023-08-21T08:54:07;25.4;55.3
78884;SHT31;68262;51.968;5.672;2023-08-21T08:56:37;25.4;55.0
78884;SHT31;68262;51.968;5.672;2023-08-21T08:59:08;25.5;54.9
78884;SHT31;68262;51.968;5.672;2023-08-21T09:01:38;25.5;54.8
78884;SHT31;68262;51.968;5.672;2023-08-21T09:04:08;25.5;54.5
78884;SHT31;68262;51.968;5.672;2023-08-21T09:06:38;25.6;53.9
78884;SHT31;68262;51.968;5.672;2023-08-21T09:09:08;25.6;55.0
78884;SHT31;68262;51.968;5.672;2023-08-21T09:11:45;25.6;54.4
78884;SHT31;68262;51.968;5.672;2023-08-21T09:14:15;25.6;53.1
78884;SHT31;68262;51.968;5.672;2023-08-21T09:17:00;25.7;53.8
78884;SHT31;68262;51.968;5.672;2023-08-21T09:19:31;25.7;53.8
78884;SHT31;68262;51.968;5.672;2023-08-21T09:22:09;25.7;53.4
78884;SHT31;68262;51.968;5.672;2023-08-21T09:24:41;25.7;52.9
78884;SHT31;68262;51.968;5.672;2023-08-21T09:27:16;25.8;54.1
78884;SHT31;68262;51.968;5.672;2023-08-21T09:29:47;25.8;52.3
78884;SHT31;68262;51.968;5.672;2023-08-21T09:32:17;25.9;52.2
78884;SHT31;68262;51.968;5.672;2023-08-21T09:34:46;25.9;51.7
78884;SHT31;68262;51.968;5.672;2023-08-21T09:37:16;26.0;51.8
78884;SHT31;68262;51.968;5.672;2023-08-21T09:39:48;26.0;53.4
78884;SHT31;68262;51.968;5.672;2023-08-21T09:42:18;26.1;53.9
78884;SHT31;68262;51.968;5.672;2023-08-21T09:44:48;26.2;52.7
78884;SHT31;68262;51.968;5.672;2023-08-21T09:47:23;26.2;51.3
78884;SHT31;68262;51.968;5.672;2023-08-21T09:49:54;26.3;52.6
78884;SHT31;68262;51.968;5.672;2023-08-21T09:52:24;26.4;52.0
78884;SHT31;68262;51.968;5.672;2023-08-21T09:54:56;26.5;51.7
78884;SHT31;68262;51.968;5.672;2023-08-21T09:57:27;26.6;49.7
78884;SHT31;68262;51.968;5.672;2023-08-21T09:59:57;26.7;50.2
78884;SHT31;68262;51.968;5.672;2023-08-21T10:02:34;26.7;50.7
78884;SHT31;68262;51.968;5.672;2023-08-21T10:05:05;26.8;50.4
78884;SHT31;68262;51.968;5.672;2023-08-21T10:07:35;26.9;48.9
78884;SHT31;68262;51.968;5.672;2023-08-21T10:10:06;27.0;49.7
78884;SHT31;68262;51.968;5.672;2023-08-21T10:12:35;27.1;47.5
78884;SHT31;68262;51.968;5.672;2023-08-21T10:15:07;27.2;48.3
78884;SHT31;68262;51.968;5.672;2023-08-21T10:17:37;27.2;48.7
78884;SHT31;68262;51.968;5.672;2023-08-21T10:20:09;27.3;46.5
78884;SHT31;68262;51.968;5.672;2023-08-21T10:22:43;27.4;48.7
78884;SHT31;68262;51.968;5.672;2023-08-21T10:25:18;27.4;47.8
78884;SHT31;68262;51.968;5.672;2023-08-21T10:27:53;27.5;47.7
78884;SHT31;68262;51.968;5.672;2023-08-21T10:30:24;27.5;48.3
78884;SHT31;68262;51.968;5.672;2023-08-21T10:32:57;27.6;48.9
78884;SHT31;68262;51.968;5.672;2023-08-21T10:35:29;27.7;47.1
78884;SHT31;68262;51.968;5.672;2023-08-21T10:38:09;27.8;46.1
78884;SHT31;68262;51.968;5.672;2023-08-21T10:40:41;27.9;48.0
78884;SHT31;68262;51.968;5.672;2023-08-21T10:43:40;28.0;48.7
78884;SHT31;68262;51.968;5.672;2023-08-21T10:46:11;28.1;46.6
78884;SHT31;68262;51.968;5.672;2023-08-21T10:48:43;28.2;47.0
78884;SHT31;68262;51.968;5.672;2023-08-21T10:51:12;28.3;44.2
78884;SHT31;68262;51.968;5.672;2023-08-21T10:53:42;28.4;44.8
78884;SHT31;68262;51.968;5.672;2023-08-21T10:56:11;28.4;45.0
78884;SHT31;68262;51.968;5.672;2023-08-21T10:58:43;28.5;44.5
78884;SHT31;68262;51.968;5.672;2023-08-21T11:01:14;28.6;44.0
78884;SHT31;68262;51.968;5.672;2023-08-21T11:03:51;28.7;46.3
78884;SHT31;68262;51.968;5.672;2023-08-21T11:06:21;28.7;44.7
78884;SHT31;68262;51.968;5.672;2023-08-21T11:08:51;28.8;42.5
78884;SHT31;68262;51.968;5.672;2023-08-21T11:11:21;28.8;44.2
78884;SHT31;68262;51.968;5.672;2023-08-21T11:13:54;28.9;43.6
78884;SHT31;68262;51.968;5.672;2023-08-21T11:16:25;29.0;43.8
78884;SHT31;68262;51.968;5.672;2023-08-21T11:18:54;29.0;46.7
78884;SHT31;68262;51.968;5.672;2023-08-21T11:21:26;29.1;47.1
78884;SHT31;68262;51.968;5.672;2023-08-21T11:23:55;29.2;43.6
78884;SHT31;68262;51.968;5.672;2023-08-21T11:26:25;29.3;43.3
78884;SHT31;68262;51.968;5.672;2023-08-21T11:28:55;29.4;43.8
78884;SHT31;68262;51.968;5.672;2023-08-21T11:31:27;29.5;41.2
78884;SHT31;68262;51.968;5.672;2023-08-21T11:33:58;29.5;42.0
78884;SHT31;68262;51.968;5.672;2023-08-21T11:36:28;29.6;41.1
78884;SHT31;68262;51.968;5.672;2023-08-21T11:39:03;29.7;39.5
78884;SHT31;68262;51.968;5.672;2023-08-21T11:41:54;29.8;41.8
78884;SHT31;68262;51.968;5.672;2023-08-21T11:44:24;29.9;41.7
78884;SHT31;68262;51.968;5.672;2023-08-21T11:46:55;30.0;41.4
78884;SHT31;68262;51.968;5.672;2023-08-21T11:49:25;30.0;40.7
78884;SHT31;68262;51.968;5.672;2023-08-21T11:51:55;30.1;39.4
78884;SHT31;68262;51.968;5.672;2023-08-21T11:54:25;30.2;40.5
78884;SHT31;68262;51.968;5.672;2023-08-21T11:56:57;30.3;42.8
78884;SHT31;68262;51.968;5.672;2023-08-21T11:59:26;30.4;42.2
78884;SHT31;68262;51.968;5.672;2023-08-21T12:01:56;30.5;43.6
78884;SHT31;68262;51.968;5.672;2023-08-21T12:04:25;30.6;41.8
78884;SHT31;68262;51.968;5.672;2023-08-21T12:06:55;30.8;41.5
78884;SHT31;68262;51.968;5.672;2023-08-21T12:09:25;30.9;40.6
78884;SHT31;68262;51.968;5.672;2023-08-21T12:11:54;31.0;43.2
78884;SHT31;68262;51.968;5.672;2023-08-21T12:14:25;31.1;42.9
78884;SHT31;68262;51.968;5.672;2023-08-21T12:16:55;31.2;42.5
78884;SHT31;68262;51.968;5.672;2023-08-21T12:19:24;31.3;41.9
78884;SHT31;68262;51.968;5.672;2023-08-21T12:21:54;31.4;41.5
78884;SHT31;68262;51.968;5.672;2023-08-21T12:24:25;31.5;42.2
78884;SHT31;68262;51.968;5.672;2023-08-21T12:26:55;31.6;39.5
78884;SHT31;68262;51.968;5.672;2023-08-21T12:29:25;31.7;40.2
78884;SHT31;68262;51.968;5.672;2023-08-21T12:31:54;31.8;39.0
78884;SHT31;68262;51.968;5.672;2023-08-21T12:34:26;31.9;36.4
78884;SHT31;68262;51.968;5.672;2023-08-21T12:36:55;31.9;38.8
78884;SHT31;68262;51.968;5.672;2023-08-21T12:39:27;32.0;36.2
78884;SHT31;68262;51.968;5.672;2023-08-21T12:41:57;32.0;37.7
78884;SHT31;68262;51.968;5.672;2023-08-21T12:44:27;32.1;38.0
78884;SHT31;68262;51.968;5.672;2023-08-21T12:46:57;32.1;37.0
78884;SHT31;68262;51.968;5.672;2023-08-21T12:49:26;32.2;38.0
78884;SHT31;68262;51.968;5.672;2023-08-21T12:51:58;32.2;40.0
78884;SHT31;68262;51.968;5.672;2023-08-21T12:54:27;32.2;38.2
78884;SHT31;68262;51.968;5.672;2023-08-21T12:56:57;32.3;37.2
78884;SHT31;68262;51.968;5.672;2023-08-21T12:59:26;32.3;36.0
78884;SHT31;68262;51.968;5.672;2023-08-21T13:01:58;32.4;34.3
78884;SHT31;68262;51.968;5.672;2023-08-21T13:04:30;32.4;34.1
78884;SHT31;68262;51.968;5.672;2023-08-21T13:07:00;32.5;31.5
78884;SHT31;68262;51.968;5.672;2023-08-21T13:09:31;32.5;32.3
78884;SHT31;68262;51.968;5.672;2023-08-21T13:12:01;32.6;36.3
78884;SHT31;68262;51.968;5.672;2023-08-21T13:14:31;32.6;35.5
78884;SHT31;68262;51.968;5.672;2023-08-21T13:17:00;32.6;36.0
78884;SHT31;68262;51.968;5.672;2023-08-21T13:19:30;32.7;35.5
78884;SHT31;68262;51.968;5.672;2023-08-21T13:22:00;32.7;36.6
78884;SHT31;68262;51.968;5.672;2023-08-21T13:24:29;32.8;35.4
78884;SHT31;68262;51.968;5.672;2023-08-21T13:26:59;32.9;35.1
78884;SHT31;68262;51.968;5.672;2023-08-21T13:29:29;32.9;34.5
78884;SHT31;68262;51.968;5.672;2023-08-21T13:31:58;33.0;37.9
78884;SHT31;68262;51.968;5.672;2023-08-21T13:34:28;33.0;38.5
78884;SHT31;68262;51.968;5.672;2023-08-21T13:36:57;33.1;37.7
78884;SHT31;68262;51.968;5.672;2023-08-21T13:39:26;33.1;33.9
78884;SHT31;68262;51.968;5.672;2023-08-21T13:41:58;33.2;36.7
78884;SHT31;68262;51.968;5.672;2023-08-21T13:44:27;33.2;33.3
78884;SHT31;68262;51.968;5.672;2023-08-21T13:46:57;33.2;35.6
78884;SHT31;68262;51.968;5.672;2023-08-21T13:49:26;33.3;33.4
78884;SHT31;68262;51.968;5.672;2023-08-21T13:51:56;33.3;33.2
78884;SHT31;68262;51.968;5.672;2023-08-21T13:54:26;33.3;32.8
78884;SHT31;68262;51.968;5.672;2023-08-21T13:56:56;33.4;34.5
78884;SHT31;68262;51.968;5.672;2023-08-21T13:59:27;33.4;35.7
78884;SHT31;68262;51.968;5.672;2023-08-21T14:01:56;33.4;35.2
78884;SHT31;68262;51.968;5.672;2023-08-21T14:04:26;33.5;35.3
78884;SHT31;68262;51.968;5.672;2023-08-21T14:06:55;33.5;35.5
78884;SHT31;68262;51.968;5.672;2023-08-21T14:09:25;33.6;35.3
78884;SHT31;68262;51.968;5.672;2023-08-21T14:11:54;33.6;34.5
78884;SHT31;68262;51.968;5.672;2023-08-21T14:14:24;33.7;31.9
78884;SHT31;68262;51.968;5.672;2023-08-21T14:16:55;33.7;33.8
78884;SHT31;68262;51.968;5.672;2023-08-21T14:19:28;33.7;33.9
78884;SHT31;68262;51.968;5.672;2023-08-21T14:21:58;33.7;36.0
78884;SHT31;68262;51.968;5.672;2023-08-21T14:24:28;33.7;33.4
78884;SHT31;68262;51.968;5.672;2023-08-21T14:26:58;33.8;34.1
78884;SHT31;68262;51.968;5.672;2023-08-21T14:29:28;33.8;34.6
78884;SHT31;68262;51.968;5.672;2023-08-21T14:31:58;33.7;33.8
78884;SHT31;68262;51.968;5.672;2023-08-21T14:34:28;33.7;35.6
78884;SHT31;68262;51.968;5.672;2023-08-21T14:36:59;33.7;34.1
78884;SHT31;68262;51.968;5.672;2023-08-21T14:39:33;33.7;33.0
78884;SHT31;68262;51.968;5.672;2023-08-21T14:42:03;33.6;33.0
78884;SHT31;68262;51.968;5.672;2023-08-21T14:44:32;33.6;32.1
78884;SHT31;68262;51.968;5.672;2023-08-21T14:47:04;33.6;33.3
78884;SHT31;68262;51.968;5.672;2023-08-21T14:49:34;33.6;35.0
78884;SHT31;68262;51.968;5.672;2023-08-21T14:52:04;33.5;31.5
78884;SHT31;68262;51.968;5.672;2023-08-21T14:54:35;33.5;29.8
78884;SHT31;68262;51.968;5.672;2023-08-21T14:57:05;33.5;30.2
78884;SHT31;68262;51.968;5.672;2023-08-21T14:59:34;33.5;30.4
78884;SHT31;68262;51.968;5.672;2023-08-21T15:02:04;33.5;33.3
78884;SHT31;68262;51.968;5.672;2023-08-21T15:04:35;33.5;34.1
78884;SHT31;68262;51.968;5.672;2023-08-21T15:07:05;33.4;31.1
78884;SHT31;68262;51.968;5.672;2023-08-21T15:09:35;33.4;31.5
78884;SHT31;68262;51.968;5.672;2023-08-21T15:12:06;33.5;31.7
78884;SHT31;68262;51.968;5.672;2023-08-21T15:14:36;33.5;33.4
78884;SHT31;68262;51.968;5.672;2023-08-21T15:17:05;33.4;33.5
78884;SHT31;68262;51.968;5.672;2023-08-21T15:19:35;33.4;32.0
78884;SHT31;68262;51.968;5.672;2023-08-21T15:22:04;33.4;31.5
78884;SHT31;68262;51.968;5.672;2023-08-21T15:24:34;33.5;31.4
78884;SHT31;68262;51.968;5.672;2023-08-21T15:27:04;33.5;33.1
78884;SHT31;68262;51.968;5.672;2023-08-21T15:29:33;33.5;32.0
78884;SHT31;68262;51.968;5.672;2023-08-21T15:32:03;33.5;33.9
78884;SHT31;68262;51.968;5.672;2023-08-21T15:34:33;33.4;34.2
78884;SHT31;68262;51.968;5.672;2023-08-21T15:37:03;33.4;34.5
78884;SHT31;68262;51.968;5.672;2023-08-21T15:39:32;33.4;32.9
78884;SHT31;68262;51.968;5.672;2023-08-21T15:42:02;33.4;32.0
78884;SHT31;68262;51.968;5.672;2023-08-21T15:44:31;33.4;31.5
78884;SHT31;68262;51.968;5.672;2023-08-21T15:47:01;33.4;32.7
78884;SHT31;68262;51.968;5.672;2023-08-21T15:49:38;33.3;32.4
78884;SHT31;68262;51.968;5.672;2023-08-21T15:52:08;33.3;32.2
78884;SHT31;68262;51.968;5.672;2023-08-21T15:54:38;33.3;32.0
78884;SHT31;68262;51.968;5.672;2023-08-21T15:57:09;33.3;32.0
78884;SHT31;68262;51.968;5.672;2023-08-21T15:59:39;33.2;30.8
78884;SHT31;68262;51.968;5.672;2023-08-21T16:02:11;33.2;33.2
78884;SHT31;68262;51.968;5.672;2023-08-21T16:04:41;33.2;34.4
78884;SHT31;68262;51.968;5.672;2023-08-21T16:07:11;33.2;33.5
78884;SHT31;68262;51.968;5.672;2023-08-21T16:09:40;33.1;33.2
78884;SHT31;68262;51.968;5.672;2023-08-21T16:12:10;33.1;33.6
78884;SHT31;68262;51.968;5.672;2023-08-21T16:14:39;33.0;31.9
78884;SHT31;68262;51.968;5.672;2023-08-21T16:17:09;33.0;32.4
78884;SHT31;68262;51.968;5.672;2023-08-21T16:19:38;33.0;34.0
78884;SHT31;68262;51.968;5.672;2023-08-21T16:22:10;32.9;32.9